createdAt,value
2018-09-02T00:01:15.921Z,17.30
2018-09-02T00:03:44.308Z,16.87
2018-09-02T00:06:12.632Z,18.37
2018-09-02T00:08:40.910Z,15.93
2018-09-02T00:11:09.187Z,16.23
2018-09-02T00:19:22.968Z,18.37
2018-09-02T00:21:51.293Z,16.50
2018-09-02T00:24:20.072Z,15.90
2018-09-02T00:26:48.408Z,17.20
2018-09-02T00:29:16.730Z,16.23
2018-09-02T00:31:45.041Z,16.97
2018-09-02T00:34:13.484Z,17.17
2018-09-02T00:36:41.806Z,15.37
2018-09-02T00:39:11.053Z,15.97
2018-09-02T00:41:40.055Z,16.20
2018-09-02T00:44:08.842Z,18.03
2018-09-02T00:46:37.193Z,17.33
2018-09-02T00:49:05.653Z,14.97
2018-09-02T00:51:33.950Z,15.23
2018-09-02T00:54:02.229Z,14.37
2018-09-02T00:56:30.514Z,14.63
2018-09-02T00:58:58.807Z,15.27
2018-09-02T01:01:27.120Z,14.77
2018-09-02T01:03:55.404Z,15.90
2018-09-02T01:06:23.997Z,17.53
2018-09-02T01:08:52.270Z,16.53
2018-09-02T01:11:20.571Z,14.73
2018-09-02T02:23:36.729Z,14.57
2018-09-02T02:26:05.085Z,15.73
2018-09-02T02:28:33.436Z,14.30
2018-09-02T02:31:01.766Z,14.00
2018-09-02T02:33:30.105Z,14.20
2018-09-02T02:35:58.447Z,14.03
2018-09-02T02:38:26.801Z,13.30
2018-09-02T02:40:55.136Z,14.03
2018-09-02T02:43:23.510Z,14.73
2018-09-02T02:45:51.829Z,15.07
2018-09-02T02:48:20.166Z,14.77
2018-09-02T02:50:48.465Z,16.30
2018-09-02T02:53:16.858Z,16.33
2018-09-02T02:55:45.125Z,13.23
2018-09-02T02:58:13.425Z,14.93
2018-09-02T03:00:41.734Z,13.23
2018-09-02T03:03:10.039Z,14.97
2018-09-02T03:05:38.320Z,15.83
2018-09-02T03:08:06.699Z,17.40
2018-09-02T03:10:35.104Z,15.00
2018-09-02T03:33:47.102Z,15.37
2018-09-02T03:36:15.448Z,16.60
2018-09-02T03:38:43.778Z,16.47
2018-09-02T03:41:12.115Z,14.80
2018-09-02T03:43:40.431Z,17.20
2018-09-02T03:46:08.729Z,15.03
2018-09-02T03:48:37.068Z,17.87
2018-09-02T03:51:05.384Z,13.67
2018-09-02T03:53:33.734Z,13.27
2018-09-02T03:56:02.050Z,12.00
2018-09-02T03:58:30.357Z,12.03
2018-09-02T04:00:58.689Z,12.20
2018-09-02T04:03:26.992Z,12.07
2018-09-02T04:05:55.318Z,11.70
2018-09-02T04:08:23.623Z,11.37
2018-09-02T04:10:51.958Z,12.13
2018-09-02T05:15:27.638Z,12.43
2018-09-02T05:17:55.969Z,12.20
2018-09-02T06:17:39.443Z,24.03
2018-09-02T06:28:55.877Z,21.03
2018-09-02T06:31:24.213Z,20.67
2018-09-02T06:33:52.572Z,20.63
2018-09-02T06:36:20.898Z,18.07
2018-09-02T06:38:49.227Z,17.27
2018-09-02T06:41:17.550Z,18.13
2018-09-02T06:43:45.888Z,15.27
2018-09-02T06:46:14.201Z,16.13
2018-09-02T06:48:42.565Z,16.43
2018-09-02T06:51:10.922Z,24.63
2018-09-02T06:53:39.270Z,15.77
2018-09-02T06:56:07.593Z,13.87
2018-09-02T06:58:35.968Z,14.07
2018-09-02T07:01:04.242Z,12.93
2018-09-02T07:03:32.519Z,14.57
2018-09-02T07:06:01.389Z,13.50
2018-09-02T07:08:29.678Z,12.37
2018-09-02T07:10:57.958Z,12.27
2018-09-02T07:13:26.261Z,11.10
2018-09-02T07:15:54.556Z,11.73
2018-09-02T07:18:22.869Z,11.77
2018-09-02T07:30:00.718Z,10.93
2018-09-02T07:32:29.080Z,6.93
2018-09-02T07:34:57.388Z,6.53
2018-09-02T07:37:26.229Z,6.07
2018-09-02T07:39:54.518Z,7.07
2018-09-02T07:42:22.850Z,7.33
2018-09-02T07:44:51.249Z,6.93
2018-09-02T07:47:19.590Z,6.13
2018-09-02T07:49:48.133Z,6.97
2018-09-02T07:52:16.506Z,6.53
2018-09-02T07:54:44.857Z,6.27
2018-09-02T07:57:20.907Z,6.30
2018-09-02T07:59:51.047Z,6.27
2018-09-02T08:02:19.334Z,6.33
2018-09-02T08:04:47.643Z,6.87
2018-09-02T08:07:15.937Z,6.90
2018-09-02T08:09:44.239Z,5.83
2018-09-02T08:12:12.530Z,4.30
2018-09-02T08:26:41.347Z,5.33
2018-09-02T08:29:09.577Z,3.70
2018-09-02T08:31:51.659Z,3.60
2018-09-02T08:34:21.105Z,3.87
2018-09-02T08:36:49.437Z,4.20
2018-09-02T08:39:17.802Z,3.90
2018-09-02T08:41:46.103Z,5.00
2018-09-02T08:44:14.508Z,4.17
2018-09-02T08:46:42.786Z,3.83
2018-09-02T08:49:11.120Z,3.60
2018-09-02T08:51:39.479Z,3.53
2018-09-02T08:54:07.817Z,3.20
2018-09-02T08:56:36.175Z,3.50
2018-09-02T08:59:22.339Z,3.30
2018-09-02T09:03:08.785Z,3.50
2018-09-02T09:06:23.596Z,3.10
2018-09-02T09:08:52.153Z,3.73
2018-09-02T09:11:20.361Z,4.67
2018-09-02T09:13:48.710Z,3.93
2018-09-02T09:16:17.457Z,4.27
2018-09-02T09:18:45.788Z,4.70
2018-09-02T09:29:52.490Z,5.13
2018-09-02T09:32:20.869Z,4.60
2018-09-02T09:34:49.497Z,5.27
2018-09-02T09:37:18.320Z,5.37
2018-09-02T09:39:46.633Z,5.07
2018-09-02T09:42:15.051Z,5.27
2018-09-02T09:44:43.378Z,4.20
2018-09-02T09:47:11.763Z,3.90
2018-09-02T09:49:40.105Z,4.20
2018-09-02T09:52:08.401Z,3.23
2018-09-02T09:54:36.709Z,3.37
2018-09-02T09:57:05.054Z,2.90
2018-09-02T09:59:33.358Z,3.03
2018-09-02T10:02:01.689Z,3.23
2018-09-02T10:04:30.038Z,3.73
2018-09-02T10:06:58.383Z,3.33
2018-09-02T10:09:26.655Z,3.40
2018-09-02T10:11:55.009Z,3.40
2018-09-02T10:14:23.246Z,3.50
2018-09-02T10:16:51.540Z,3.20
2018-09-02T10:22:16.245Z,3.13
2018-09-02T10:24:44.529Z,3.00
2018-09-02T10:27:12.866Z,2.67
2018-09-02T10:29:41.153Z,2.50
2018-09-02T10:32:09.415Z,2.50
2018-09-02T10:34:37.702Z,2.80
2018-09-02T10:37:06.125Z,2.60
2018-09-02T10:39:34.402Z,2.63
2018-09-02T10:42:02.690Z,2.73
2018-09-02T10:44:30.985Z,2.57
2018-09-02T10:46:59.286Z,2.97
2018-09-02T10:49:27.619Z,3.20
2018-09-02T10:51:55.916Z,2.87
2018-09-02T10:54:24.198Z,3.20
2018-09-02T10:56:52.481Z,3.10
2018-09-02T10:59:20.782Z,3.20
2018-09-02T11:01:49.051Z,4.30
2018-09-02T11:04:17.358Z,3.03
2018-09-02T11:06:45.639Z,3.10
2018-09-02T11:09:13.921Z,3.53
2018-09-02T11:11:42.245Z,3.27
2018-09-02T12:14:38.929Z,2.10
2018-09-02T12:17:07.198Z,2.10
2018-09-02T13:16:59.229Z,2.37
2018-09-02T14:20:40.364Z,2.00
2018-09-02T14:23:21.147Z,1.93
2018-09-02T14:25:49.515Z,2.13
2018-09-02T14:28:18.069Z,2.93
2018-09-02T14:30:46.509Z,2.40
2018-09-02T14:33:14.800Z,2.23
2018-09-02T14:35:43.121Z,2.33
2018-09-02T14:38:11.453Z,2.00
2018-09-02T14:40:39.762Z,2.50
2018-09-02T14:43:08.037Z,2.47
2018-09-02T14:45:36.623Z,2.60
2018-09-02T14:48:05.061Z,2.30
2018-09-02T14:50:33.350Z,2.60
2018-09-02T14:53:01.625Z,2.43
2018-09-02T14:55:29.929Z,2.20
2018-09-02T14:57:58.208Z,2.17
2018-09-02T15:00:26.490Z,2.07
2018-09-02T15:02:54.852Z,2.33
2018-09-02T15:05:23.125Z,1.87
2018-09-02T15:07:51.430Z,2.07
2018-09-02T15:10:19.696Z,2.40
2018-09-02T15:15:41.093Z,2.00
2018-09-02T15:18:09.369Z,2.37
2018-09-02T15:23:45.502Z,2.33
2018-09-02T15:26:13.812Z,2.77
2018-09-02T15:28:42.121Z,2.40
2018-09-02T15:31:10.461Z,2.60
2018-09-02T15:33:38.786Z,2.27
2018-09-02T15:36:07.092Z,2.70
2018-09-02T15:38:35.419Z,2.30
2018-09-02T15:41:03.757Z,2.40
2018-09-02T15:43:32.064Z,2.53
2018-09-02T15:46:00.377Z,2.63
2018-09-02T15:48:28.710Z,2.60
2018-09-02T15:50:57.033Z,2.80
2018-09-02T15:53:25.346Z,2.80
2018-09-02T15:55:53.650Z,3.37
2018-09-02T15:58:21.937Z,2.93
2018-09-02T16:00:50.242Z,2.73
2018-09-02T16:03:18.565Z,2.80
2018-09-02T16:05:46.841Z,8.43
2018-09-02T16:08:15.100Z,2.30
2018-09-02T16:10:43.402Z,2.90
2018-09-02T16:16:05.020Z,2.50
2018-09-02T16:18:33.321Z,2.83
2018-09-02T17:12:44.447Z,2.90
2018-09-02T17:18:50.794Z,3.97
2018-09-02T18:13:16.763Z,10.87
2018-09-02T18:18:52.480Z,5.73
2018-09-02T18:24:28.134Z,5.10
2018-09-02T18:26:56.458Z,6.27
2018-09-02T18:29:24.782Z,6.30
2018-09-02T18:31:53.114Z,5.77
2018-09-02T18:34:21.457Z,6.07
2018-09-02T18:36:49.781Z,5.93
2018-09-02T18:39:18.206Z,5.97
2018-09-02T18:41:46.479Z,6.47
2018-09-02T18:44:14.825Z,6.50
2018-09-02T18:46:43.177Z,6.53
2018-09-02T18:49:11.503Z,6.93
2018-09-02T18:51:39.862Z,7.13
2018-09-02T18:54:08.173Z,7.57
2018-09-02T18:56:36.457Z,7.10
2018-09-02T18:59:05.996Z,6.77
2018-09-02T19:01:34.288Z,7.50
2018-09-02T19:04:02.662Z,7.13
2018-09-02T19:06:31.017Z,7.13
2018-09-02T19:08:59.501Z,9.27
2018-09-02T19:11:27.777Z,10.30
2018-09-02T19:13:56.214Z,7.30
2018-09-02T19:16:24.521Z,8.30
2018-09-02T19:18:53.765Z,7.70
2018-09-02T19:26:55.166Z,9.73
2018-09-02T19:29:23.517Z,11.50
2018-09-02T19:31:51.842Z,7.70
2018-09-02T19:34:20.164Z,8.73
2018-09-02T19:36:48.604Z,7.87
2018-09-02T19:39:16.930Z,8.30
2018-09-02T19:41:45.225Z,7.63
2018-09-02T19:44:13.588Z,9.27
2018-09-02T19:46:41.941Z,10.23
2018-09-02T19:49:10.245Z,8.60
2018-09-02T19:51:38.702Z,8.93
2018-09-02T19:54:07.202Z,8.37
2018-09-02T19:56:35.521Z,8.57
2018-09-02T19:59:03.806Z,8.67
2018-09-02T20:01:32.107Z,9.07
2018-09-02T20:04:00.435Z,12.70
2018-09-02T20:06:28.727Z,10.87
2018-09-02T20:08:57.018Z,12.10
2018-09-02T20:11:25.331Z,10.30
2018-09-02T20:13:53.658Z,13.40
2018-09-02T20:16:21.969Z,9.67
2018-09-02T21:13:33.109Z,10.40
2018-09-02T21:16:01.447Z,12.23
2018-09-02T21:18:29.884Z,10.80
2018-09-02T21:22:33.419Z,8.90
2018-09-02T21:27:54.578Z,10.23
2018-09-02T21:30:22.926Z,10.23
2018-09-02T21:32:51.239Z,12.07
2018-09-02T21:35:19.576Z,11.80
2018-09-02T21:37:47.892Z,12.90
2018-09-02T21:40:16.317Z,14.03
2018-09-02T21:42:44.654Z,15.23
2018-09-02T21:45:13.094Z,13.77
2018-09-02T21:47:41.421Z,13.07
2018-09-02T21:50:10.461Z,14.13
2018-09-02T21:52:38.781Z,12.33
2018-09-02T21:55:07.201Z,13.43
2018-09-02T21:57:35.533Z,14.27
2018-09-02T22:00:04.537Z,14.23
2018-09-02T22:02:32.832Z,15.70
2018-09-02T22:05:01.129Z,15.10
2018-09-02T22:07:29.422Z,14.20
2018-09-02T22:09:57.716Z,13.90
2018-09-02T22:12:26.014Z,15.57
2018-09-02T22:14:54.377Z,13.10
2018-09-02T22:17:22.649Z,13.27
2018-09-02T22:23:02.307Z,18.33
2018-09-02T22:28:23.148Z,15.80
2018-09-02T22:30:51.465Z,12.50
2018-09-02T22:33:19.807Z,13.70
2018-09-02T22:35:48.105Z,12.30
2018-09-02T22:38:16.465Z,13.07
2018-09-02T22:40:44.917Z,12.47
2018-09-02T22:43:13.237Z,11.47
2018-09-02T22:45:41.550Z,10.80
2018-09-02T22:48:09.934Z,12.33
2018-09-02T22:50:38.269Z,11.00
2018-09-02T22:53:06.632Z,9.80
2018-09-02T22:55:34.970Z,12.40
2018-09-02T22:58:03.254Z,14.37
2018-09-02T23:00:31.548Z,11.17
2018-09-02T23:02:59.853Z,10.10
2018-09-02T23:05:28.129Z,9.33
2018-09-02T23:07:56.385Z,10.20
2018-09-02T23:10:24.670Z,9.47
2018-09-02T23:12:56.798Z,9.73
2018-09-02T23:21:11.502Z,9.63
